createdAt,value
2022-09-04T00:01:24.502Z,14.10
2022-09-04T00:03:59.334Z,14.30
2022-09-04T00:06:32.142Z,14.27
2022-09-04T00:09:14.292Z,14.23
2022-09-04T00:11:51.009Z,14.30
2022-09-04T00:14:22.302Z,14.23
2022-09-04T00:17:01.983Z,14.18
2022-09-04T00:19:36.864Z,14.12
2022-09-04T00:22:11.063Z,14.13
2022-09-04T00:24:43.867Z,14.09
2022-09-04T00:27:18.847Z,13.67
2022-09-04T00:29:55.567Z,14.06
2022-09-04T00:32:28.662Z,14.01
2022-09-04T00:35:05.619Z,14.01
2022-09-04T00:37:38.114Z,13.96
2022-09-04T00:40:11.246Z,13.93
2022-09-04T00:43:06.550Z,13.91
2022-09-04T00:45:53.799Z,13.81
2022-09-04T00:48:55.273Z,13.79
2022-09-04T00:51:34.623Z,13.64
2022-09-04T00:54:10.594Z,13.65
2022-09-04T00:57:22.461Z,13.66
2022-09-04T01:00:06.913Z,13.61
2022-09-04T01:02:53.484Z,13.60
2022-09-04T01:05:40.026Z,13.42
2022-09-04T01:08:17.180Z,13.52
2022-09-04T01:10:57.221Z,13.44
2022-09-04T01:13:33.815Z,13.34
2022-09-04T01:16:10.350Z,13.30
2022-09-04T01:18:48.382Z,13.24
2022-09-04T01:21:36.545Z,13.20
2022-09-04T01:24:23.679Z,13.18
2022-09-04T01:27:00.221Z,13.19
2022-09-04T01:29:39.830Z,13.15
2022-09-04T01:32:19.623Z,13.14
2022-09-04T01:34:54.893Z,13.08
2022-09-04T01:37:34.867Z,13.00
2022-09-04T01:40:19.394Z,13.01
2022-09-04T01:42:52.640Z,13.00
2022-09-04T01:45:25.016Z,12.97
2022-09-04T01:48:01.980Z,12.96
2022-09-04T01:50:32.918Z,12.97
2022-09-04T01:53:07.719Z,13.00
2022-09-04T01:55:44.874Z,13.00
2022-09-04T01:58:19.875Z,12.96
2022-09-04T02:00:58.864Z,12.93
2022-09-04T02:03:31.632Z,12.89
2022-09-04T02:06:06.209Z,12.88
2022-09-04T02:09:05.634Z,12.89
2022-09-04T02:11:33.685Z,12.77
2022-09-04T02:14:17.751Z,12.82
2022-09-04T02:17:04.075Z,12.79
2022-09-04T02:19:42.854Z,12.73
2022-09-04T02:22:25.306Z,12.71
2022-09-04T02:25:01.878Z,12.68
2022-09-04T02:27:41.992Z,12.59
2022-09-04T02:30:14.468Z,12.63
2022-09-04T02:32:50.282Z,12.65
2022-09-04T02:35:24.911Z,12.54
2022-09-04T02:38:02.360Z,12.41
2022-09-04T02:40:38.696Z,12.38
2022-09-04T02:43:21.321Z,12.37
2022-09-04T02:46:00.680Z,12.29
2022-09-04T02:48:35.233Z,12.22
2022-09-04T02:51:17.747Z,12.15
2022-09-04T02:53:57.833Z,12.14
2022-09-04T02:56:36.904Z,12.08
2022-09-04T02:59:19.514Z,12.02
2022-09-04T03:01:54.299Z,11.99
2022-09-04T03:04:28.175Z,11.95
2022-09-04T03:07:03.513Z,11.94
2022-09-04T03:09:38.324Z,11.96
2022-09-04T03:12:26.261Z,11.91
2022-09-04T03:15:02.597Z,11.85
2022-09-04T03:17:40.805Z,11.81
2022-09-04T03:20:14.276Z,11.78
2022-09-04T03:22:50.127Z,11.76
2022-09-04T03:25:48.649Z,11.69
2022-09-04T03:28:27.087Z,11.71
2022-09-04T03:30:58.869Z,11.69
2022-09-04T03:33:37.440Z,11.69
2022-09-04T03:36:12.904Z,11.70
2022-09-04T03:38:54.969Z,11.71
2022-09-04T03:41:34.650Z,11.74
2022-09-04T03:44:13.558Z,11.73
2022-09-04T03:46:54.269Z,11.72
2022-09-04T03:49:43.155Z,11.75
2022-09-04T03:52:19.534Z,11.72
2022-09-04T03:55:06.989Z,11.71
2022-09-04T03:57:51.464Z,11.71
2022-09-04T04:00:21.563Z,11.71
2022-09-04T04:03:15.511Z,11.65
2022-09-04T04:05:56.069Z,11.56
2022-09-04T04:08:44.938Z,11.52
2022-09-04T04:11:30.129Z,11.50
2022-09-04T04:14:19.156Z,11.50
2022-09-04T04:17:02.503Z,11.47
2022-09-04T04:19:47.948Z,11.39
2022-09-04T04:22:35.242Z,11.36
2022-09-04T04:25:25.160Z,11.35
2022-09-04T04:28:19.172Z,11.40
2022-09-04T04:30:52.490Z,11.32
2022-09-04T04:33:33.769Z,11.19
2022-09-04T04:36:10.077Z,11.14
2022-09-04T04:38:54.262Z,11.12
2022-09-04T04:41:31.936Z,11.10
2022-09-04T04:44:10.880Z,11.10
2022-09-04T04:46:55.577Z,11.11
2022-09-04T04:49:49.097Z,11.18
2022-09-04T04:52:30.326Z,11.22
2022-09-04T04:55:15.112Z,11.20
2022-09-04T04:57:54.389Z,11.18
2022-09-04T05:00:28.915Z,11.19
2022-09-04T05:03:09.017Z,11.21
2022-09-04T05:06:00.831Z,11.29
2022-09-04T05:08:40.094Z,11.30
2022-09-04T05:11:18.474Z,11.39
2022-09-04T05:13:58.492Z,11.43
2022-09-04T05:16:36.103Z,11.39
2022-09-04T05:19:18.869Z,11.55
2022-09-04T05:21:53.220Z,11.63
2022-09-04T05:24:29.848Z,11.76
2022-09-04T05:27:07.197Z,11.85
2022-09-04T05:29:47.448Z,11.95
2022-09-04T05:32:22.830Z,12.07
2022-09-04T05:35:06.098Z,12.23
2022-09-04T05:37:39.860Z,12.34
2022-09-04T05:40:18.383Z,12.37
2022-09-04T05:43:04.774Z,12.48
2022-09-04T05:45:48.168Z,12.60
2022-09-04T05:48:23.839Z,12.73
2022-09-04T05:51:04.220Z,12.85
2022-09-04T05:54:22.778Z,13.08
2022-09-04T05:57:09.736Z,13.13
2022-09-04T06:00:15.918Z,13.47
2022-09-04T06:03:18.592Z,13.48
2022-09-04T06:06:22.483Z,13.52
2022-09-04T06:09:24.012Z,13.87
2022-09-04T06:12:18.764Z,14.39
2022-09-04T06:15:07.760Z,15.10
2022-09-04T06:17:52.730Z,16.03
2022-09-04T06:20:36.925Z,15.76
2022-09-04T06:23:24.874Z,16.02
2022-09-04T06:26:20.300Z,17.46
2022-09-04T06:29:15.846Z,17.38
2022-09-04T06:32:16.396Z,16.87
2022-09-04T06:35:10.764Z,18.37
2022-09-04T06:37:51.820Z,18.80
2022-09-04T06:40:34.497Z,20.19
2022-09-04T06:43:16.701Z,21.34
2022-09-04T06:45:57.765Z,21.13
2022-09-04T06:48:40.970Z,20.72
2022-09-04T06:51:26.999Z,19.52
2022-09-04T06:54:06.919Z,17.92
2022-09-04T06:56:56.059Z,17.66
2022-09-04T06:59:57.227Z,17.66
2022-09-04T07:02:42.520Z,19.48
2022-09-04T07:05:20.642Z,18.28
2022-09-04T07:08:02.489Z,17.81
2022-09-04T07:10:35.963Z,17.22
2022-09-04T07:13:23.551Z,17.04
2022-09-04T07:16:06.948Z,17.34
2022-09-04T07:18:49.361Z,17.57
2022-09-04T07:21:27.740Z,17.56
2022-09-04T07:24:05.132Z,17.39
2022-09-04T07:26:39.710Z,17.06
2022-09-04T07:29:30.895Z,17.30
2022-09-04T07:32:05.872Z,17.44
2022-09-04T07:34:44.620Z,17.56
2022-09-04T07:37:25.050Z,17.54
2022-09-04T07:40:06.522Z,17.68
2022-09-04T07:42:44.105Z,17.68
2022-09-04T07:45:22.537Z,17.69
2022-09-04T07:47:58.635Z,17.58
2022-09-04T07:50:35.296Z,17.59
2022-09-04T07:53:20.721Z,17.80
2022-09-04T07:55:53.177Z,17.87
2022-09-04T07:58:49.402Z,18.03
2022-09-04T08:01:40.636Z,18.12
2022-09-04T08:04:50.974Z,18.19
2022-09-04T08:07:29.058Z,18.28
2022-09-04T08:10:14.811Z,18.81
2022-09-04T08:13:06.074Z,18.96
2022-09-04T08:15:43.335Z,19.19
2022-09-04T08:18:37.296Z,19.06
2022-09-04T08:21:18.605Z,18.94
2022-09-04T08:24:07.220Z,18.80
2022-09-04T08:26:45.616Z,18.82
2022-09-04T08:29:32.635Z,18.86
2022-09-04T08:32:17.948Z,18.97
2022-09-04T08:34:53.961Z,19.28
2022-09-04T08:37:28.245Z,19.58
2022-09-04T08:40:14.235Z,19.65
2022-09-04T08:43:06.542Z,19.80
2022-09-04T08:46:03.351Z,20.02
2022-09-04T08:49:11.598Z,20.09
2022-09-04T08:52:13.624Z,20.63
2022-09-04T08:55:03.202Z,20.64
2022-09-04T08:57:52.217Z,21.11
2022-09-04T09:00:21.925Z,21.00
2022-09-04T09:03:31.536Z,20.83
2022-09-04T09:06:19.929Z,21.01
2022-09-04T09:09:26.546Z,21.40
2022-09-04T09:12:24.787Z,21.79
2022-09-04T09:15:18.910Z,21.94
2022-09-04T09:18:02.228Z,21.55
2022-09-04T09:20:36.139Z,21.41
2022-09-04T09:23:18.517Z,21.42
2022-09-04T09:25:56.007Z,21.53
2022-09-04T09:29:14.374Z,21.74
2022-09-04T09:32:29.117Z,21.79
2022-09-04T09:35:33.632Z,21.70
2022-09-04T09:38:34.782Z,21.76
2022-09-04T09:41:21.083Z,21.83
2022-09-04T09:44:37.236Z,21.89
2022-09-04T09:47:41.592Z,22.45
2022-09-04T09:50:52.413Z,23.76
2022-09-04T09:53:53.409Z,23.59
2022-09-04T09:56:53.754Z,23.62
2022-09-04T09:59:53.789Z,23.68
2022-09-04T10:02:55.084Z,23.23
2022-09-04T10:06:01.646Z,22.99
2022-09-04T10:09:08.738Z,24.29
2022-09-04T10:12:23.543Z,23.75
2022-09-04T10:15:33.001Z,23.78
2022-09-04T10:18:33.348Z,23.34
2022-09-04T10:21:30.730Z,23.06
2022-09-04T10:24:20.931Z,23.25
2022-09-04T10:27:32.292Z,23.21
2022-09-04T10:30:08.300Z,23.36
2022-09-04T10:32:59.697Z,23.56
2022-09-04T10:35:39.276Z,23.67
2022-09-04T10:38:28.181Z,23.70
2022-09-04T10:41:29.425Z,23.59
2022-09-04T10:44:23.227Z,23.53
2022-09-04T10:47:02.575Z,23.92
2022-09-04T10:49:50.346Z,24.12
2022-09-04T10:52:44.393Z,24.04
2022-09-04T10:55:21.525Z,24.47
2022-09-04T10:58:10.618Z,24.46
2022-09-04T11:00:55.623Z,24.62
2022-09-04T11:04:00.364Z,25.05
2022-09-04T11:06:52.802Z,24.91
2022-09-04T11:09:46.150Z,25.81
2022-09-04T11:12:40.747Z,26.33
2022-09-04T11:15:47.955Z,26.17
2022-09-04T11:18:51.514Z,26.09
2022-09-04T11:21:52.335Z,25.87
2022-09-04T11:24:50.453Z,26.23
2022-09-04T11:27:49.409Z,26.15
2022-09-04T11:30:19.552Z,26.76
2022-09-04T11:33:30.312Z,26.50
2022-09-04T11:36:18.918Z,26.06
2022-09-04T11:39:19.066Z,26.04
2022-09-04T11:42:20.372Z,26.28
2022-09-04T11:45:21.156Z,26.43
2022-09-04T11:48:15.234Z,26.04
2022-09-04T11:51:03.832Z,26.07
2022-09-04T11:54:00.379Z,26.18
2022-09-04T11:56:43.776Z,26.40
2022-09-04T11:59:35.025Z,26.47
2022-09-04T12:02:36.243Z,26.28
2022-09-04T12:05:20.162Z,26.29
2022-09-04T12:08:04.852Z,26.31
2022-09-04T12:10:55.835Z,26.56
2022-09-04T12:13:52.687Z,26.81
2022-09-04T12:16:48.704Z,26.85
2022-09-04T12:19:40.248Z,26.83
2022-09-04T12:22:36.399Z,27.05
2022-09-04T12:25:43.863Z,27.05
2022-09-04T12:28:50.876Z,27.39
2022-09-04T12:31:35.848Z,27.63
2022-09-04T12:34:29.546Z,27.40
2022-09-04T12:37:25.227Z,27.75
2022-09-04T12:40:34.022Z,27.60
2022-09-04T12:43:16.561Z,28.22
2022-09-04T12:45:53.036Z,29.13
2022-09-04T12:48:33.251Z,28.45
2022-09-04T12:51:09.418Z,28.30
2022-09-04T12:53:54.240Z,27.86
2022-09-04T12:56:27.825Z,27.72
2022-09-04T12:59:22.288Z,27.40
2022-09-04T13:02:01.651Z,27.31
2022-09-04T13:04:39.768Z,27.03
2022-09-04T13:07:30.925Z,27.33
2022-09-04T13:10:11.328Z,27.33
2022-09-04T13:12:46.225Z,27.37
2022-09-04T13:15:32.421Z,27.37
2022-09-04T13:18:16.595Z,27.64
2022-09-04T13:20:54.654Z,27.61
2022-09-04T13:23:39.561Z,27.26
2022-09-04T13:26:33.899Z,27.09
2022-09-04T13:29:17.111Z,26.94
2022-09-04T13:31:57.139Z,27.17
2022-09-04T13:34:37.875Z,27.20
2022-09-04T13:37:12.775Z,26.93
2022-09-04T13:40:16.577Z,27.20
2022-09-04T13:43:05.557Z,26.79
2022-09-04T13:45:39.817Z,26.83
2022-09-04T13:48:12.631Z,27.06
2022-09-04T13:50:46.863Z,27.12
2022-09-04T13:53:21.484Z,27.21
2022-09-04T13:55:54.330Z,27.35
2022-09-04T13:58:27.914Z,28.05
2022-09-04T14:01:00.505Z,28.39
2022-09-04T14:03:37.217Z,28.66
2022-09-04T14:06:11.066Z,28.79
2022-09-04T14:08:39.890Z,28.82
2022-09-04T14:11:47.457Z,28.80
2022-09-04T14:14:37.630Z,29.01
2022-09-04T14:17:06.973Z,28.42
2022-09-04T14:19:52.760Z,27.73
2022-09-04T14:22:33.592Z,28.06
2022-09-04T14:25:12.223Z,28.23
2022-09-04T14:27:49.484Z,28.22
2022-09-04T14:30:19.145Z,28.38
2022-09-04T14:33:05.013Z,28.45
2022-09-04T14:35:46.605Z,28.43
2022-09-04T14:38:56.570Z,27.94
2022-09-04T14:41:39.563Z,27.86
2022-09-04T14:44:20.360Z,28.13
2022-09-04T14:46:58.915Z,28.25
2022-09-04T14:49:31.865Z,28.32
2022-09-04T14:52:03.937Z,28.17
2022-09-04T14:54:39.385Z,28.12
2022-09-04T14:57:19.170Z,27.77
2022-09-04T14:59:58.459Z,27.71
2022-09-04T15:02:33.928Z,27.64
2022-09-04T15:05:05.988Z,27.14
2022-09-04T15:07:56.511Z,27.07
2022-09-04T15:10:47.501Z,27.08
2022-09-04T15:13:31.285Z,27.13
2022-09-04T15:16:12.571Z,27.36
2022-09-04T15:18:53.529Z,27.32
2022-09-04T15:21:29.666Z,27.29
2022-09-04T15:24:04.675Z,27.29
2022-09-04T15:26:37.986Z,27.17
2022-09-04T15:29:16.218Z,26.96
2022-09-04T15:31:45.910Z,27.13
2022-09-04T15:34:21.469Z,27.15
2022-09-04T15:36:50.623Z,27.25
2022-09-04T15:39:30.143Z,27.30
2022-09-04T15:41:58.305Z,27.46
2022-09-04T15:44:33.396Z,27.57
2022-09-04T15:47:08.046Z,27.68
2022-09-04T15:49:48.482Z,27.60
2022-09-04T15:52:33.345Z,27.54
2022-09-04T15:55:07.042Z,27.11
2022-09-04T15:57:51.667Z,26.75
2022-09-04T16:00:24.449Z,26.98
2022-09-04T16:02:59.043Z,26.84
2022-09-04T16:05:35.106Z,26.74
2022-09-04T16:08:20.451Z,26.83
2022-09-04T16:10:59.009Z,26.54
2022-09-04T16:13:45.247Z,26.47
2022-09-04T16:16:19.172Z,26.57
2022-09-04T16:19:15.892Z,26.71
2022-09-04T16:21:52.847Z,26.45
2022-09-04T16:24:25.474Z,26.32
2022-09-04T16:26:55.753Z,26.16
2022-09-04T16:29:35.849Z,25.94
2022-09-04T16:32:09.600Z,25.86
2022-09-04T16:34:47.163Z,25.81
2022-09-04T16:37:20.841Z,25.72
2022-09-04T16:40:13.559Z,25.68
2022-09-04T16:42:50.123Z,25.62
2022-09-04T16:45:22.358Z,25.58
2022-09-04T16:47:56.608Z,25.45
2022-09-04T16:50:35.676Z,25.31
2022-09-04T16:53:14.365Z,25.18
2022-09-04T16:55:57.271Z,25.01
2022-09-04T16:58:46.831Z,24.84
2022-09-04T17:01:18.398Z,24.59
2022-09-04T17:04:13.133Z,24.61
2022-09-04T17:06:54.348Z,24.48
2022-09-04T17:09:29.359Z,24.37
2022-09-04T17:12:03.621Z,24.34
2022-09-04T17:14:37.682Z,24.23
2022-09-04T17:17:30.739Z,24.12
2022-09-04T17:20:09.134Z,24.05
2022-09-04T17:28:57.652Z,23.96
2022-09-04T17:29:12.102Z,23.91
2022-09-04T17:29:20.997Z,23.79
2022-09-04T17:31:45.694Z,23.71
2022-09-04T17:40:34.672Z,23.59
2022-09-04T17:40:52.071Z,23.48
2022-09-04T17:40:56.844Z,23.38
2022-09-04T17:43:22.274Z,23.33
2022-09-04T17:46:02.315Z,23.23
2022-09-04T17:48:33.623Z,23.15
2022-09-04T17:51:04.232Z,23.05
2022-09-04T17:53:35.350Z,22.94
2022-09-04T17:56:14.473Z,22.89
2022-09-04T17:58:49.760Z,22.81
2022-09-04T18:01:23.301Z,22.74
2022-09-04T18:04:20.025Z,22.64
2022-09-04T18:06:55.747Z,22.54
2022-09-04T18:09:31.940Z,22.45
2022-09-04T18:12:11.419Z,22.37
2022-09-04T18:14:48.410Z,22.35
2022-09-04T18:17:21.102Z,22.22
2022-09-04T18:19:51.367Z,22.16
2022-09-04T18:22:31.947Z,22.10
2022-09-04T18:25:16.593Z,22.03
2022-09-04T18:28:11.690Z,21.92
2022-09-04T18:37:06.670Z,21.79
2022-09-04T18:37:09.599Z,21.84
2022-09-04T18:37:19.849Z,21.73
2022-09-04T18:39:40.708Z,21.67
2022-09-04T18:47:30.590Z,21.63
2022-09-04T18:50:49.355Z,21.58
2022-09-04T18:50:50.999Z,21.49
2022-09-04T18:51:19.702Z,21.45
2022-09-04T18:53:54.267Z,21.40
2022-09-04T18:56:29.371Z,21.32
2022-09-04T18:59:06.928Z,21.28
2022-09-04T19:01:43.798Z,21.25
2022-09-04T19:04:33.925Z,21.14
2022-09-04T19:07:07.121Z,21.13
2022-09-04T19:09:55.909Z,21.13
2022-09-04T19:12:44.495Z,21.14
2022-09-04T19:15:37.705Z,21.12
2022-09-04T19:18:16.159Z,21.06
2022-09-04T19:20:48.260Z,21.02
2022-09-04T19:23:25.770Z,20.86
2022-09-04T19:25:57.172Z,20.98
2022-09-04T19:28:29.642Z,20.95
2022-09-04T19:31:02.273Z,20.94
2022-09-04T19:33:38.971Z,20.91
2022-09-04T19:36:12.892Z,20.73
2022-09-04T19:43:49.831Z,20.79
2022-09-04T19:46:02.731Z,20.68
2022-09-04T19:46:03.405Z,20.52
2022-09-04T19:47:30.889Z,20.61
2022-09-04T19:53:18.396Z,20.55
2022-09-04T19:53:23.060Z,20.45
2022-09-04T19:56:06.503Z,20.31
2022-09-04T19:58:38.978Z,20.34
2022-09-04T20:01:16.615Z,20.31
2022-09-04T20:03:49.795Z,20.28
2022-09-04T20:06:30.067Z,20.22
2022-09-04T20:09:03.445Z,20.19
2022-09-04T20:11:38.768Z,20.12
2022-09-04T20:14:15.305Z,20.17
2022-09-04T20:16:53.260Z,20.10
2022-09-04T20:19:28.547Z,20.12
2022-09-04T20:22:03.573Z,20.09
2022-09-04T20:24:40.391Z,20.06
2022-09-04T20:27:15.849Z,20.08
2022-09-04T20:29:54.491Z,20.03
2022-09-04T20:32:26.545Z,20.01
2022-09-04T20:35:14.052Z,19.98
2022-09-04T20:37:48.725Z,19.89
2022-09-04T20:40:26.875Z,19.95
2022-09-04T20:43:18.830Z,19.91
2022-09-04T20:46:54.078Z,19.89
2022-09-04T20:52:59.685Z,19.93
2022-09-04T20:53:04.754Z,19.83
2022-09-04T20:55:10.322Z,19.83
2022-09-04T21:03:09.704Z,19.81
2022-09-04T21:03:22.272Z,19.78
2022-09-04T21:04:00.895Z,19.70
2022-09-04T21:06:34.787Z,19.58
2022-09-04T21:09:16.222Z,19.62
2022-09-04T21:11:48.487Z,19.53
2022-09-04T21:14:26.899Z,19.61
2022-09-04T21:17:33.690Z,19.57
2022-09-04T21:20:35.663Z,19.58
2022-09-04T21:23:33.374Z,19.53
2022-09-04T21:26:15.628Z,19.55
2022-09-04T21:29:11.324Z,19.54
2022-09-04T21:31:55.377Z,19.25
2022-09-04T21:34:43.983Z,19.45
2022-09-04T21:37:20.656Z,19.44
2022-09-04T21:40:25.792Z,19.44
2022-09-04T21:43:12.111Z,19.35
2022-09-04T21:45:57.949Z,19.34
2022-09-04T21:48:52.224Z,19.25
2022-09-04T21:51:36.413Z,19.28
2022-09-04T21:55:26.661Z,19.27
2022-09-04T22:02:25.356Z,19.27
2022-09-04T22:02:40.987Z,19.20
2022-09-04T22:03:35.665Z,19.29
2022-09-04T22:06:19.012Z,19.25
2022-09-04T22:13:29.997Z,19.20
2022-09-04T22:13:33.774Z,19.17
2022-09-04T22:14:57.990Z,19.16
2022-09-04T22:17:49.157Z,19.14
2022-09-04T22:20:24.512Z,19.11
2022-09-04T22:23:29.266Z,19.02
2022-09-04T22:26:24.247Z,18.96
2022-09-04T22:29:25.625Z,18.90
2022-09-04T22:32:28.711Z,18.86
2022-09-04T22:35:35.790Z,18.75
2022-09-04T22:38:42.267Z,18.69
2022-09-04T22:41:35.267Z,18.67
2022-09-04T22:44:31.147Z,18.63
2022-09-04T22:47:27.135Z,18.62
2022-09-04T22:50:16.741Z,18.57
2022-09-04T22:53:03.982Z,18.52
2022-09-04T22:56:08.393Z,18.48
2022-09-04T22:59:10.533Z,18.40
2022-09-04T23:02:13.313Z,18.31
2022-09-04T23:05:01.799Z,18.25
2022-09-04T23:12:59.947Z,18.22
2022-09-04T23:13:56.779Z,18.17
2022-09-04T23:14:21.986Z,18.12
2022-09-04T23:17:09.886Z,18.07
2022-09-04T23:24:50.470Z,17.99
2022-09-04T23:26:47.344Z,17.95
2022-09-04T23:27:00.491Z,17.93
2022-09-04T23:29:51.299Z,17.87
2022-09-04T23:32:46.872Z,17.73
2022-09-04T23:35:21.840Z,17.80
2022-09-04T23:38:07.966Z,17.76
2022-09-04T23:40:41.988Z,17.74
2022-09-04T23:43:31.445Z,17.69
2022-09-04T23:46:18.048Z,17.65
2022-09-04T23:49:05.639Z,17.60
2022-09-04T23:51:44.041Z,17.60
2022-09-04T23:54:52.764Z,17.55
2022-09-04T23:57:28.776Z,17.48
